createdAt,value
2022-12-26T00:01:09.768Z,13.31
2022-12-26T00:04:48.930Z,13.68
2022-12-26T00:07:33.742Z,13.83
2022-12-26T00:10:35.532Z,13.76
2022-12-26T00:13:41.397Z,13.84
2022-12-26T00:16:45.926Z,13.84
2022-12-26T00:19:47.686Z,13.87
2022-12-26T00:22:49.302Z,13.97
2022-12-26T00:25:56.607Z,14.02
2022-12-26T00:28:58.490Z,14.11
2022-12-26T00:32:00.272Z,14.07
2022-12-26T00:35:02.018Z,14.08
2022-12-26T00:38:03.661Z,14.25
2022-12-26T00:41:06.371Z,14.10
2022-12-26T00:44:07.929Z,14.11
2022-12-26T00:47:09.614Z,14.28
2022-12-26T00:50:15.406Z,14.13
2022-12-26T00:53:18.006Z,13.78
2022-12-26T00:56:19.677Z,13.19
2022-12-26T00:59:21.350Z,12.86
2022-12-26T01:02:38.292Z,12.72
2022-12-26T01:05:50.153Z,12.63
2022-12-26T01:08:53.044Z,12.65
2022-12-26T01:11:54.629Z,13.37
2022-12-26T01:14:56.929Z,13.13
2022-12-26T01:18:00.022Z,13.19
2022-12-26T01:21:08.535Z,13.35
2022-12-26T01:24:10.224Z,13.59
2022-12-26T01:27:11.967Z,13.67
2022-12-26T01:30:13.766Z,13.74
2022-12-26T01:33:15.713Z,13.88
2022-12-26T01:36:17.895Z,13.74
2022-12-26T01:39:20.293Z,13.89
2022-12-26T01:42:25.272Z,14.13
2022-12-26T01:45:32.129Z,14.11
2022-12-26T01:48:35.451Z,13.86
2022-12-26T01:51:41.461Z,13.92
2022-12-26T01:54:46.006Z,13.84
2022-12-26T01:57:54.376Z,13.73
2022-12-26T02:00:56.209Z,13.80
2022-12-26T02:04:17.419Z,13.89
2022-12-26T02:07:19.787Z,13.72
2022-12-26T02:10:26.224Z,13.71
2022-12-26T02:13:28.814Z,13.59
2022-12-26T02:16:30.476Z,13.43
2022-12-26T02:19:59.352Z,13.32
2022-12-26T02:23:22.051Z,13.20
2022-12-26T02:26:56.027Z,13.21
2022-12-26T02:30:03.580Z,13.31
2022-12-26T02:33:20.781Z,13.59
2022-12-26T02:36:43.736Z,13.88
2022-12-26T02:40:08.517Z,13.96
2022-12-26T02:43:33.450Z,13.73
2022-12-26T02:47:02.993Z,13.96
2022-12-26T02:50:32.668Z,14.05
2022-12-26T02:54:30.917Z,14.02
2022-12-26T02:58:13.637Z,14.02
2022-12-26T03:01:51.996Z,13.71
2022-12-26T03:05:15.237Z,13.55
2022-12-26T03:08:54.489Z,13.82
2022-12-26T03:12:38.239Z,13.74
2022-12-26T03:16:15.061Z,13.73
2022-12-26T03:19:17.335Z,13.81
2022-12-26T03:22:31.056Z,13.84
2022-12-26T03:26:17.403Z,13.87
2022-12-26T03:29:41.129Z,14.06
2022-12-26T03:32:44.030Z,13.87
2022-12-26T03:35:45.748Z,13.88
2022-12-26T03:39:07.870Z,13.90
2022-12-26T03:42:34.459Z,13.96
2022-12-26T03:46:10.745Z,14.05
2022-12-26T03:49:44.337Z,13.88
2022-12-26T03:53:12.720Z,13.95
2022-12-26T03:56:49.736Z,13.79
2022-12-26T04:00:16.706Z,13.88
2022-12-26T04:03:39.949Z,13.98
2022-12-26T04:07:12.016Z,14.04
2022-12-26T04:10:38.392Z,13.96
2022-12-26T04:14:23.743Z,14.08
2022-12-26T04:18:05.973Z,13.95
2022-12-26T04:21:44.942Z,13.94
2022-12-26T04:25:49.042Z,13.93
2022-12-26T04:29:07.362Z,13.93
2022-12-26T04:33:01.782Z,13.88
2022-12-26T04:36:28.548Z,13.79
2022-12-26T04:39:52.894Z,13.83
2022-12-26T04:43:46.903Z,13.81
2022-12-26T04:46:43.444Z,13.91
2022-12-26T04:50:04.298Z,13.82
2022-12-26T04:53:05.941Z,13.83
2022-12-26T04:56:09.744Z,13.73
2022-12-26T04:59:11.475Z,13.61
2022-12-26T05:02:31.660Z,13.57
2022-12-26T05:05:57.959Z,13.58
2022-12-26T05:09:18.296Z,13.53
2022-12-26T05:12:20.739Z,13.49
2022-12-26T05:15:22.463Z,13.50
2022-12-26T05:18:42.705Z,13.58
2022-12-26T05:22:02.983Z,13.63
2022-12-26T05:25:28.282Z,13.86
2022-12-26T05:28:42.069Z,13.75
2022-12-26T05:31:43.828Z,13.74
2022-12-26T05:34:45.485Z,13.74
2022-12-26T05:37:48.883Z,13.94
2022-12-26T05:40:51.287Z,13.87
2022-12-26T05:43:52.899Z,13.83
2022-12-26T05:46:54.845Z,13.95
2022-12-26T05:49:56.523Z,13.95
2022-12-26T05:52:59.187Z,13.90
2022-12-26T05:56:06.407Z,13.91
2022-12-26T05:59:09.505Z,13.61
2022-12-26T06:02:11.314Z,13.63
2022-12-26T06:05:13.099Z,13.64
2022-12-26T06:08:14.743Z,13.62
2022-12-26T06:11:17.829Z,13.53
2022-12-26T06:14:19.527Z,13.60
2022-12-26T06:17:21.143Z,13.75
2022-12-26T06:20:22.771Z,13.79
2022-12-26T06:23:24.407Z,13.84
2022-12-26T06:26:26.157Z,13.73
2022-12-26T06:29:27.871Z,13.74
2022-12-26T06:32:30.742Z,13.96
2022-12-26T06:35:34.203Z,13.81
2022-12-26T06:38:36.410Z,13.84
2022-12-26T06:41:38.034Z,13.74
2022-12-26T06:44:39.632Z,13.83
2022-12-26T06:47:41.311Z,13.69
2022-12-26T06:50:42.954Z,13.80
2022-12-26T06:53:44.903Z,13.75
2022-12-26T06:56:46.543Z,13.70
2022-12-26T06:59:48.170Z,13.75
2022-12-26T07:02:51.588Z,13.76
2022-12-26T07:05:53.570Z,13.93
2022-12-26T07:08:59.070Z,13.83
2022-12-26T07:12:00.777Z,13.81
2022-12-26T07:15:02.435Z,13.67
2022-12-26T07:18:04.145Z,13.59
2022-12-26T07:21:07.713Z,13.39
2022-12-26T07:24:21.362Z,13.18
2022-12-26T07:27:23.078Z,12.99
2022-12-26T07:30:24.683Z,12.91
2022-12-26T07:33:28.574Z,12.78
2022-12-26T07:36:30.217Z,12.59
2022-12-26T07:39:31.864Z,12.56
2022-12-26T07:42:33.525Z,12.50
2022-12-26T07:45:38.055Z,12.29
2022-12-26T07:48:43.747Z,12.10
2022-12-26T07:51:45.353Z,12.04
2022-12-26T07:54:46.991Z,11.94
2022-12-26T07:57:52.484Z,11.74
2022-12-26T08:00:54.706Z,11.75
2022-12-26T08:03:56.501Z,11.60
2022-12-26T08:06:58.353Z,11.53
2022-12-26T08:10:00.159Z,11.40
2022-12-26T08:13:02.810Z,11.25
2022-12-26T08:16:06.836Z,11.20
2022-12-26T08:19:08.841Z,11.09
2022-12-26T08:22:10.484Z,10.92
2022-12-26T08:25:13.393Z,10.92
2022-12-26T08:28:18.728Z,10.84
2022-12-26T08:31:20.852Z,10.66
2022-12-26T08:34:22.656Z,10.73
2022-12-26T08:37:24.694Z,10.68
2022-12-26T08:40:42.069Z,10.69
2022-12-26T08:47:11.350Z,10.71
2022-12-26T08:50:13.094Z,10.70
2022-12-26T08:53:14.907Z,10.63
2022-12-26T08:56:24.212Z,10.50
2022-12-26T08:59:25.982Z,10.66
2022-12-26T09:02:27.996Z,10.81
2022-12-26T09:05:31.593Z,10.86
2022-12-26T09:08:34.961Z,10.60
2022-12-26T09:11:37.626Z,10.87
2022-12-26T09:14:40.423Z,10.75
2022-12-26T09:17:43.020Z,10.64
2022-12-26T09:20:44.687Z,10.60
2022-12-26T09:23:46.485Z,10.70
2022-12-26T09:26:48.333Z,10.71
2022-12-26T09:29:50.055Z,10.51
2022-12-26T09:32:54.115Z,10.49
2022-12-26T09:36:03.067Z,10.31
2022-12-26T09:39:14.137Z,10.23
2022-12-26T09:42:31.297Z,10.51
2022-12-26T09:46:01.997Z,10.45
2022-12-26T09:49:20.555Z,10.39
2022-12-26T09:52:50.944Z,10.13
2022-12-26T09:56:03.162Z,10.04
2022-12-26T09:59:20.653Z,9.96
2022-12-26T10:02:25.547Z,9.92
2022-12-26T10:05:39.233Z,9.94
2022-12-26T10:09:16.028Z,10.28
2022-12-26T10:12:49.189Z,10.28
2022-12-26T10:16:00.635Z,10.12
2022-12-26T10:19:16.455Z,9.98
2022-12-26T10:22:34.781Z,10.40
2022-12-26T10:25:43.657Z,10.09
2022-12-26T10:28:59.688Z,10.42
2022-12-26T10:32:14.819Z,10.45
2022-12-26T10:35:31.596Z,10.25
2022-12-26T10:38:41.403Z,10.25
2022-12-26T10:41:48.372Z,10.19
2022-12-26T10:44:50.794Z,10.07
2022-12-26T10:47:54.401Z,9.91
2022-12-26T10:50:57.010Z,9.94
2022-12-26T10:53:59.180Z,10.13
2022-12-26T10:57:02.431Z,10.10
2022-12-26T11:00:17.258Z,10.27
2022-12-26T11:03:20.699Z,10.26
2022-12-26T11:06:44.055Z,10.43
2022-12-26T11:09:46.210Z,10.46
2022-12-26T11:12:52.097Z,10.38
2022-12-26T11:15:54.733Z,10.56
2022-12-26T11:18:57.771Z,10.46
2022-12-26T11:22:21.502Z,10.47
2022-12-26T11:25:30.952Z,10.41
2022-12-26T11:28:36.601Z,10.29
2022-12-26T11:31:41.898Z,10.02
2022-12-26T11:34:49.873Z,10.16
2022-12-26T11:37:56.830Z,10.40
2022-12-26T11:41:17.588Z,10.47
2022-12-26T11:44:25.323Z,10.44
2022-12-26T11:47:30.033Z,10.60
2022-12-26T11:50:34.024Z,10.77
2022-12-26T11:53:37.155Z,10.54
2022-12-26T11:56:45.488Z,10.67
2022-12-26T11:59:48.405Z,10.66
2022-12-26T12:02:52.154Z,10.92
2022-12-26T12:06:15.288Z,10.92
2022-12-26T12:09:22.100Z,10.65
2022-12-26T12:12:45.058Z,10.63
2022-12-26T12:16:32.097Z,10.97
2022-12-26T12:19:42.525Z,11.07
2022-12-26T12:23:10.903Z,11.05
2022-12-26T12:26:23.457Z,11.07
2022-12-26T12:29:54.380Z,11.00
2022-12-26T12:33:17.623Z,10.94
2022-12-26T12:36:37.370Z,10.87
2022-12-26T12:39:47.157Z,10.93
2022-12-26T12:42:55.419Z,10.48
2022-12-26T12:46:36.291Z,10.82
2022-12-26T12:50:09.069Z,10.80
2022-12-26T12:53:22.833Z,10.77
2022-12-26T12:56:54.528Z,10.85
2022-12-26T13:00:08.099Z,10.84
2022-12-26T13:03:50.357Z,10.71
2022-12-26T13:07:22.438Z,10.47
2022-12-26T13:10:33.202Z,10.66
2022-12-26T13:13:41.159Z,10.73
2022-12-26T13:16:47.815Z,10.54
2022-12-26T13:20:16.684Z,10.48
2022-12-26T13:24:10.907Z,10.49
2022-12-26T13:27:21.459Z,10.72
2022-12-26T13:30:23.566Z,10.55
2022-12-26T13:33:25.455Z,10.44
2022-12-26T13:36:36.783Z,10.55
2022-12-26T13:39:40.808Z,10.47
2022-12-26T13:43:28.055Z,10.57
2022-12-26T13:46:38.741Z,10.58
2022-12-26T13:49:42.696Z,10.54
2022-12-26T13:52:47.113Z,10.63
2022-12-26T13:55:55.148Z,10.53
2022-12-26T13:59:21.778Z,10.68
2022-12-26T14:03:16.247Z,10.64
2022-12-26T14:06:18.703Z,10.54
2022-12-26T14:09:42.544Z,10.53
2022-12-26T14:13:09.227Z,10.61
2022-12-26T14:16:23.281Z,10.56
2022-12-26T14:19:34.173Z,10.50
2022-12-26T14:22:46.797Z,10.44
2022-12-26T14:26:04.742Z,10.41
2022-12-26T14:29:13.172Z,10.32
2022-12-26T14:33:12.218Z,10.25
2022-12-26T14:36:34.145Z,10.41
2022-12-26T14:40:02.193Z,10.32
2022-12-26T14:43:18.003Z,10.24
2022-12-26T14:46:32.030Z,10.40
2022-12-26T14:49:35.979Z,10.44
2022-12-26T14:52:40.873Z,10.29
2022-12-26T14:56:01.675Z,10.38
2022-12-26T14:59:38.888Z,10.49
2022-12-26T15:02:44.978Z,10.39
2022-12-26T15:05:50.299Z,10.56
2022-12-26T15:09:20.235Z,10.60
2022-12-26T15:13:00.113Z,10.62
2022-12-26T15:16:29.029Z,10.48
2022-12-26T15:19:49.400Z,10.42
2022-12-26T15:23:15.589Z,10.50
2022-12-26T15:26:35.588Z,10.48
2022-12-26T15:29:43.258Z,10.60
2022-12-26T15:33:00.345Z,10.61
2022-12-26T15:36:27.218Z,10.50
2022-12-26T15:39:57.645Z,10.51
2022-12-26T15:42:59.330Z,10.61
2022-12-26T15:46:20.953Z,10.54
2022-12-26T15:49:37.809Z,10.50
2022-12-26T15:52:46.967Z,10.50
2022-12-26T15:56:13.537Z,10.59
2022-12-26T15:59:56.429Z,10.56
2022-12-26T16:03:29.884Z,10.59
2022-12-26T16:07:10.270Z,10.50
2022-12-26T16:10:33.534Z,10.39
2022-12-26T16:13:35.547Z,10.45
2022-12-26T16:16:38.621Z,10.50
2022-12-26T16:19:46.188Z,10.37
2022-12-26T16:22:47.894Z,10.34
2022-12-26T16:25:54.504Z,10.51
2022-12-26T16:29:00.205Z,10.49
2022-12-26T16:32:04.187Z,10.51
2022-12-26T16:35:08.195Z,10.56
2022-12-26T16:38:19.693Z,10.58
2022-12-26T16:41:25.806Z,10.69
2022-12-26T16:44:31.965Z,10.69
2022-12-26T16:47:34.699Z,10.67
2022-12-26T16:50:47.300Z,10.72
2022-12-26T16:53:48.873Z,10.69
2022-12-26T16:57:20.850Z,10.72
2022-12-26T17:00:23.612Z,10.67
2022-12-26T17:03:48.781Z,10.82
2022-12-26T17:07:01.974Z,10.74
2022-12-26T17:10:07.016Z,10.91
2022-12-26T17:13:20.466Z,10.93
2022-12-26T17:16:27.525Z,10.99
2022-12-26T17:19:31.921Z,10.98
2022-12-26T17:22:36.394Z,10.92
2022-12-26T17:25:38.247Z,11.09
2022-12-26T17:28:40.004Z,11.05
2022-12-26T17:31:44.611Z,11.09
2022-12-26T17:34:46.391Z,11.06
2022-12-26T17:37:54.316Z,11.13
2022-12-26T17:40:58.722Z,11.19
2022-12-26T17:44:00.477Z,11.03
2022-12-26T17:47:06.727Z,10.91
2022-12-26T17:50:08.517Z,10.67
2022-12-26T17:53:13.170Z,10.47
2022-12-26T17:56:17.952Z,10.21
2022-12-26T17:59:19.570Z,9.74
2022-12-26T18:02:21.832Z,9.45
2022-12-26T18:05:23.763Z,9.25
2022-12-26T18:08:42.634Z,9.19
2022-12-26T18:11:44.246Z,9.09
2022-12-26T18:14:45.819Z,8.99
2022-12-26T18:17:49.121Z,8.96
2022-12-26T18:20:51.202Z,8.88
2022-12-26T18:23:53.211Z,8.89
2022-12-26T18:26:54.894Z,8.96
2022-12-26T18:29:57.006Z,8.98
2022-12-26T18:32:58.629Z,8.97
2022-12-26T18:36:05.852Z,9.13
2022-12-26T18:39:14.983Z,9.15
2022-12-26T18:42:17.679Z,9.16
2022-12-26T18:45:19.901Z,9.14
2022-12-26T18:48:21.623Z,9.15
2022-12-26T18:51:24.966Z,9.17
2022-12-26T18:54:26.562Z,9.12
2022-12-26T18:57:28.191Z,9.08
2022-12-26T19:00:30.458Z,9.03
2022-12-26T19:03:32.101Z,9.05
2022-12-26T19:06:35.318Z,8.98
2022-12-26T19:09:37.310Z,8.97
2022-12-26T19:12:39.622Z,9.03
2022-12-26T19:15:46.056Z,9.12
2022-12-26T19:18:47.681Z,9.18
2022-12-26T19:21:49.270Z,9.12
2022-12-26T19:24:50.895Z,9.12
2022-12-26T19:27:53.209Z,9.19
2022-12-26T19:30:54.751Z,9.15
2022-12-26T19:33:59.757Z,9.21
2022-12-26T19:37:01.436Z,9.12
2022-12-26T19:40:04.068Z,9.17
2022-12-26T19:43:05.645Z,9.13
2022-12-26T19:46:11.340Z,8.96
2022-12-26T19:49:13.049Z,8.89
2022-12-26T19:52:14.780Z,8.77
2022-12-26T19:55:16.443Z,8.60
2022-12-26T19:58:18.266Z,8.61
2022-12-26T20:01:22.822Z,8.61
2022-12-26T20:04:24.498Z,8.62
2022-12-26T20:07:26.211Z,8.70
2022-12-26T20:10:27.844Z,8.71
2022-12-26T20:13:29.450Z,8.77
2022-12-26T20:17:03.709Z,8.75
2022-12-26T20:19:52.792Z,8.70
2022-12-26T20:22:54.555Z,8.50
2022-12-26T20:26:02.493Z,8.47
2022-12-26T20:29:04.082Z,8.50
